Terminal Aerodrome Forecast
Issued by NWS

Home | Current Version | Previous Version | Text Only | Print | Product List | Glossary On
Versions: 1 2 3 4 5 6 7 8 9 10 11 12 13 14 15 16
000
FTUS42 TJSJ 020500
TAFJBQ
TAF
TJBQ 020530Z 0206/0306 07013G18KT P6SM SCT030 SCT050
     FM021400 08016G26KT P6SM SCT025 SCT050
     FM022300 09010KT P6SM FEW025 SCT050=

USA.gov is the U.S. government's official web portal to all federal, state and local government web resources and services.